sensor_id;sensor_type;location;lat;lon;timestamp;P1;durP1;ratioP1;P2;durP2;ratioP2
45136;SDS011;30894;51.740;19.498;2023-04-24T00:02:15;13.75;;;5.90;;
45136;SDS011;30894;51.740;19.498;2023-04-24T00:05:43;11.73;;;6.22;;
45136;SDS011;30894;51.740;19.498;2023-04-24T00:12:44;9.38;;;5.50;;
45136;SDS011;30894;51.740;19.498;2023-04-24T00:15:39;11.57;;;6.05;;
45136;SDS011;30894;51.740;19.498;2023-04-24T00:18:39;11.48;;;5.63;;
45136;SDS011;30894;51.740;19.498;2023-04-24T00:24:22;9.68;;;5.38;;
45136;SDS011;30894;51.740;19.498;2023-04-24T00:27:32;12.20;;;5.55;;
45136;SDS011;30894;51.740;19.498;2023-04-24T00:30:47;11.68;;;5.88;;
45136;SDS011;30894;51.740;19.498;2023-04-24T00:36:29;9.43;;;5.03;;
45136;SDS011;30894;51.740;19.498;2023-04-24T00:39:45;12.93;;;5.82;;
45136;SDS011;30894;51.740;19.498;2023-04-24T00:43:31;9.90;;;5.78;;
45136;SDS011;30894;51.740;19.498;2023-04-24T00:46:40;10.75;;;5.68;;
45136;SDS011;30894;51.740;19.498;2023-04-24T00:49:30;9.93;;;4.95;;
45136;SDS011;30894;51.740;19.498;2023-04-24T00:56:35;9.52;;;4.57;;
45136;SDS011;30894;51.740;19.498;2023-04-24T01:02:17;11.38;;;5.03;;
45136;SDS011;30894;51.740;19.498;2023-04-24T01:08:19;17.65;;;6.40;;
45136;SDS011;30894;51.740;19.498;2023-04-24T01:11:06;9.68;;;5.80;;
45136;SDS011;30894;51.740;19.498;2023-04-24T01:13:57;14.48;;;6.10;;
45136;SDS011;30894;51.740;19.498;2023-04-24T01:16:50;8.40;;;5.35;;
45136;SDS011;30894;51.740;19.498;2023-04-24T01:23:00;11.63;;;5.30;;
45136;SDS011;30894;51.740;19.498;2023-04-24T01:25:48;13.75;;;6.60;;
45136;SDS011;30894;51.740;19.498;2023-04-24T01:29:13;12.02;;;5.90;;
45136;SDS011;30894;51.740;19.498;2023-04-24T01:34:52;10.90;;;6.20;;
45136;SDS011;30894;51.740;19.498;2023-04-24T01:38:07;9.93;;;5.35;;
45136;SDS011;30894;51.740;19.498;2023-04-24T01:41:08;11.35;;;5.22;;
45136;SDS011;30894;51.740;19.498;2023-04-24T01:44:07;10.25;;;5.03;;
45136;SDS011;30894;51.740;19.498;2023-04-24T01:47:31;11.27;;;5.10;;
45136;SDS011;30894;51.740;19.498;2023-04-24T01:50:35;13.50;;;5.32;;
45136;SDS011;30894;51.740;19.498;2023-04-24T01:53:49;10.50;;;5.03;;
45136;SDS011;30894;51.740;19.498;2023-04-24T01:56:36;12.80;;;5.22;;
45136;SDS011;30894;51.740;19.498;2023-04-24T01:59:29;8.70;;;5.20;;
45136;SDS011;30894;51.740;19.498;2023-04-24T02:02:38;9.88;;;5.57;;
45136;SDS011;30894;51.740;19.498;2023-04-24T02:08:35;11.48;;;6.18;;
45136;SDS011;30894;51.740;19.498;2023-04-24T02:11:38;9.07;;;5.53;;
45136;SDS011;30894;51.740;19.498;2023-04-24T02:14:43;13.57;;;5.80;;
45136;SDS011;30894;51.740;19.498;2023-04-24T02:20:25;11.55;;;5.95;;
45136;SDS011;30894;51.740;19.498;2023-04-24T02:23:11;9.35;;;5.10;;
45136;SDS011;30894;51.740;19.498;2023-04-24T02:32:30;7.38;;;4.78;;
45136;SDS011;30894;51.740;19.498;2023-04-24T02:38:23;8.88;;;4.60;;
45136;SDS011;30894;51.740;19.498;2023-04-24T02:41:19;10.77;;;5.38;;
45136;SDS011;30894;51.740;19.498;2023-04-24T02:44:24;9.25;;;4.45;;
45136;SDS011;30894;51.740;19.498;2023-04-24T02:46:55;10.57;;;5.03;;
45136;SDS011;30894;51.740;19.498;2023-04-24T02:50:05;7.05;;;4.30;;
45136;SDS011;30894;51.740;19.498;2023-04-24T02:53:10;11.23;;;5.10;;
45136;SDS011;30894;51.740;19.498;2023-04-24T02:58:49;8.50;;;4.57;;
45136;SDS011;30894;51.740;19.498;2023-04-24T03:02:20;10.98;;;5.00;;
45136;SDS011;30894;51.740;19.498;2023-04-24T03:05:24;8.73;;;5.03;;
45136;SDS011;30894;51.740;19.498;2023-04-24T03:11:11;11.32;;;5.57;;
45136;SDS011;30894;51.740;19.498;2023-04-24T03:14:19;14.07;;;5.50;;
45136;SDS011;30894;51.740;19.498;2023-04-24T03:17:33;9.32;;;4.85;;
45136;SDS011;30894;51.740;19.498;2023-04-24T03:20:42;12.25;;;5.60;;
45136;SDS011;30894;51.740;19.498;2023-04-24T03:23:16;11.80;;;5.32;;
45136;SDS011;30894;51.740;19.498;2023-04-24T03:26:03;10.10;;;5.25;;
45136;SDS011;30894;51.740;19.498;2023-04-24T03:29:17;9.60;;;5.35;;
45136;SDS011;30894;51.740;19.498;2023-04-24T03:32:35;9.32;;;4.47;;
45136;SDS011;30894;51.740;19.498;2023-04-24T03:39:35;7.30;;;4.18;;
45136;SDS011;30894;51.740;19.498;2023-04-24T03:42:36;10.48;;;4.60;;
45136;SDS011;30894;51.740;19.498;2023-04-24T03:45:31;8.63;;;4.97;;
45136;SDS011;30894;51.740;19.498;2023-04-24T03:48:28;8.95;;;4.60;;
45136;SDS011;30894;51.740;19.498;2023-04-24T03:51:16;11.65;;;4.75;;
45136;SDS011;30894;51.740;19.498;2023-04-24T03:54:16;6.72;;;4.00;;
45136;SDS011;30894;51.740;19.498;2023-04-24T03:57:08;8.85;;;4.15;;
45136;SDS011;30894;51.740;19.498;2023-04-24T03:59:48;16.98;;;4.40;;
45136;SDS011;30894;51.740;19.498;2023-04-24T04:03:15;8.07;;;4.20;;
45136;SDS011;30894;51.740;19.498;2023-04-24T04:06:13;7.57;;;4.03;;
45136;SDS011;30894;51.740;19.498;2023-04-24T04:09:34;11.10;;;3.88;;
45136;SDS011;30894;51.740;19.498;2023-04-24T04:13:06;9.68;;;4.53;;
45136;SDS011;30894;51.740;19.498;2023-04-24T04:16:08;7.70;;;3.88;;
45136;SDS011;30894;51.740;19.498;2023-04-24T04:18:58;8.18;;;4.32;;
45136;SDS011;30894;51.740;19.498;2023-04-24T04:22:07;7.68;;;4.03;;
45136;SDS011;30894;51.740;19.498;2023-04-24T04:25:09;9.30;;;3.88;;
45136;SDS011;30894;51.740;19.498;2023-04-24T04:45:04;9.20;;;4.65;;
45136;SDS011;30894;51.740;19.498;2023-04-24T04:48:01;8.07;;;3.40;;
45136;SDS011;30894;51.740;19.498;2023-04-24T04:50:48;8.07;;;3.90;;
45136;SDS011;30894;51.740;19.498;2023-04-24T04:56:37;7.72;;;3.65;;
45136;SDS011;30894;51.740;19.498;2023-04-24T04:59:51;7.75;;;3.40;;
45136;SDS011;30894;51.740;19.498;2023-04-24T05:02:44;5.78;;;3.20;;
45136;SDS011;30894;51.740;19.498;2023-04-24T05:05:46;4.20;;;2.97;;
45136;SDS011;30894;51.740;19.498;2023-04-24T05:12:12;6.03;;;3.33;;
45136;SDS011;30894;51.740;19.498;2023-04-24T05:15:03;5.95;;;2.75;;
45136;SDS011;30894;51.740;19.498;2023-04-24T05:20:39;7.85;;;3.10;;
45136;SDS011;30894;51.740;19.498;2023-04-24T05:24:12;5.22;;;2.65;;
45136;SDS011;30894;51.740;19.498;2023-04-24T05:33:25;6.13;;;3.00;;
45136;SDS011;30894;51.740;19.498;2023-04-24T05:40:18;6.03;;;2.85;;
45136;SDS011;30894;51.740;19.498;2023-04-24T05:43:15;6.85;;;3.67;;
45136;SDS011;30894;51.740;19.498;2023-04-24T05:48:38;7.07;;;3.58;;
45136;SDS011;30894;51.740;19.498;2023-04-24T05:51:41;7.47;;;3.17;;
45136;SDS011;30894;51.740;19.498;2023-04-24T05:55:14;5.82;;;3.13;;
45136;SDS011;30894;51.740;19.498;2023-04-24T06:01:12;11.02;;;3.03;;
45136;SDS011;30894;51.740;19.498;2023-04-24T06:04:15;6.13;;;3.15;;
45136;SDS011;30894;51.740;19.498;2023-04-24T06:09:25;5.10;;;2.92;;
45136;SDS011;30894;51.740;19.498;2023-04-24T06:12:32;6.97;;;2.90;;
45136;SDS011;30894;51.740;19.498;2023-04-24T06:22:05;4.90;;;2.53;;
45136;SDS011;30894;51.740;19.498;2023-04-24T06:25:13;4.15;;;2.50;;
45136;SDS011;30894;51.740;19.498;2023-04-24T06:27:56;4.43;;;2.83;;
45136;SDS011;30894;51.740;19.498;2023-04-24T06:38:13;2.55;;;2.10;;
45136;SDS011;30894;51.740;19.498;2023-04-24T06:41:31;4.45;;;2.22;;
45136;SDS011;30894;51.740;19.498;2023-04-24T06:47:36;5.20;;;2.53;;
45136;SDS011;30894;51.740;19.498;2023-04-24T06:50:26;4.30;;;2.20;;
45136;SDS011;30894;51.740;19.498;2023-04-24T06:57:11;5.00;;;2.80;;
45136;SDS011;30894;51.740;19.498;2023-04-24T07:00:12;7.93;;;2.53;;
45136;SDS011;30894;51.740;19.498;2023-04-24T07:03:18;2.97;;;2.38;;
45136;SDS011;30894;51.740;19.498;2023-04-24T07:06:45;8.02;;;2.63;;
45136;SDS011;30894;51.740;19.498;2023-04-24T07:12:39;5.40;;;2.53;;
45136;SDS011;30894;51.740;19.498;2023-04-24T07:15:47;3.67;;;2.58;;
45136;SDS011;30894;51.740;19.498;2023-04-24T07:18:46;7.90;;;3.00;;
45136;SDS011;30894;51.740;19.498;2023-04-24T07:22:17;3.72;;;2.80;;
45136;SDS011;30894;51.740;19.498;2023-04-24T07:25:41;3.78;;;2.22;;
45136;SDS011;30894;51.740;19.498;2023-04-24T07:28:32;3.72;;;2.20;;
45136;SDS011;30894;51.740;19.498;2023-04-24T07:31:29;2.20;;;1.95;;
45136;SDS011;30894;51.740;19.498;2023-04-24T07:34:14;3.22;;;2.10;;
45136;SDS011;30894;51.740;19.498;2023-04-24T07:37:22;4.90;;;2.40;;
45136;SDS011;30894;51.740;19.498;2023-04-24T07:40:27;3.75;;;2.10;;
45136;SDS011;30894;51.740;19.498;2023-04-24T07:43:26;3.95;;;2.20;;
45136;SDS011;30894;51.740;19.498;2023-04-24T07:46:36;7.82;;;2.33;;
45136;SDS011;30894;51.740;19.498;2023-04-24T07:55:31;5.07;;;2.25;;
45136;SDS011;30894;51.740;19.498;2023-04-24T08:10:38;3.50;;;2.67;;
45136;SDS011;30894;51.740;19.498;2023-04-24T08:13:43;6.97;;;2.22;;
45136;SDS011;30894;51.740;19.498;2023-04-24T08:23:34;3.75;;;2.38;;
45136;SDS011;30894;51.740;19.498;2023-04-24T08:26:26;3.53;;;2.35;;
45136;SDS011;30894;51.740;19.498;2023-04-24T09:00:37;4.45;;;2.28;;
45136;SDS011;30894;51.740;19.498;2023-04-24T09:04:07;6.40;;;2.72;;
45136;SDS011;30894;51.740;19.498;2023-04-24T09:06:59;5.78;;;2.08;;
45136;SDS011;30894;51.740;19.498;2023-04-24T09:10:08;4.13;;;2.13;;
45136;SDS011;30894;51.740;19.498;2023-04-24T09:13:06;4.47;;;2.30;;
45136;SDS011;30894;51.740;19.498;2023-04-24T09:16:04;5.75;;;2.22;;
45136;SDS011;30894;51.740;19.498;2023-04-24T09:19:11;4.75;;;2.20;;
45136;SDS011;30894;51.740;19.498;2023-04-24T09:22:07;3.70;;;1.98;;
45136;SDS011;30894;51.740;19.498;2023-04-24T09:25:09;5.82;;;2.20;;
45136;SDS011;30894;51.740;19.498;2023-04-24T09:30:45;3.47;;;1.90;;
45136;SDS011;30894;51.740;19.498;2023-04-24T09:34:08;3.65;;;2.17;;
45136;SDS011;30894;51.740;19.498;2023-04-24T09:36:44;5.25;;;2.35;;
45136;SDS011;30894;51.740;19.498;2023-04-24T09:39:47;3.03;;;2.17;;
45136;SDS011;30894;51.740;19.498;2023-04-24T09:43:31;8.95;;;2.50;;
45136;SDS011;30894;51.740;19.498;2023-04-24T09:46:17;3.10;;;1.90;;
45136;SDS011;30894;51.740;19.498;2023-04-24T09:49:25;21.42;;;3.67;;
45136;SDS011;30894;51.740;19.498;2023-04-24T09:52:47;4.50;;;1.98;;
45136;SDS011;30894;51.740;19.498;2023-04-24T09:55:55;3.22;;;1.95;;
45136;SDS011;30894;51.740;19.498;2023-04-24T10:19:37;3.08;;;2.38;;
45136;SDS011;30894;51.740;19.498;2023-04-24T10:22:13;2.75;;;2.03;;
45136;SDS011;30894;51.740;19.498;2023-04-24T10:25:06;3.53;;;1.85;;
45136;SDS011;30894;51.740;19.498;2023-04-24T10:28:05;3.90;;;2.10;;
45136;SDS011;30894;51.740;19.498;2023-04-24T10:31:27;2.85;;;1.98;;
45136;SDS011;30894;51.740;19.498;2023-04-24T10:34:30;3.58;;;2.30;;
45136;SDS011;30894;51.740;19.498;2023-04-24T10:37:22;2.22;;;1.90;;
45136;SDS011;30894;51.740;19.498;2023-04-24T10:40:36;3.08;;;2.08;;
45136;SDS011;30894;51.740;19.498;2023-04-24T11:56:46;4.57;;;1.80;;
45136;SDS011;30894;51.740;19.498;2023-04-24T12:00:03;5.40;;;2.08;;
45136;SDS011;30894;51.740;19.498;2023-04-24T12:03:33;2.25;;;2.05;;
45136;SDS011;30894;51.740;19.498;2023-04-24T12:06:23;3.65;;;1.98;;
45136;SDS011;30894;51.740;19.498;2023-04-24T12:12:43;2.50;;;1.95;;
45136;SDS011;30894;51.740;19.498;2023-04-24T12:15:35;3.45;;;1.95;;
45136;SDS011;30894;51.740;19.498;2023-04-24T12:35:31;5.97;;;2.40;;
45136;SDS011;30894;51.740;19.498;2023-04-24T12:38:46;3.40;;;1.83;;
45136;SDS011;30894;51.740;19.498;2023-04-24T12:41:48;4.22;;;2.38;;
45136;SDS011;30894;51.740;19.498;2023-04-24T12:45:02;4.18;;;2.40;;
45136;SDS011;30894;51.740;19.498;2023-04-24T12:47:57;2.67;;;1.98;;
45136;SDS011;30894;51.740;19.498;2023-04-24T13:09:09;12.30;;;5.07;;
45136;SDS011;30894;51.740;19.498;2023-04-24T13:28:43;3.33;;;1.65;;
45136;SDS011;30894;51.740;19.498;2023-04-24T13:34:43;8.35;;;1.73;;
45136;SDS011;30894;51.740;19.498;2023-04-24T13:37:30;3.45;;;2.55;;
45136;SDS011;30894;51.740;19.498;2023-04-24T13:40:26;3.75;;;2.05;;
45136;SDS011;30894;51.740;19.498;2023-04-24T13:43:42;4.55;;;2.28;;
45136;SDS011;30894;51.740;19.498;2023-04-24T13:47:03;4.55;;;2.40;;
45136;SDS011;30894;51.740;19.498;2023-04-24T13:50:05;8.25;;;2.50;;
45136;SDS011;30894;51.740;19.498;2023-04-24T13:55:40;2.63;;;2.10;;
45136;SDS011;30894;51.740;19.498;2023-04-24T13:58:36;9.85;;;4.55;;
45136;SDS011;30894;51.740;19.498;2023-04-24T14:01:27;3.83;;;2.72;;
45136;SDS011;30894;51.740;19.498;2023-04-24T14:04:19;7.13;;;3.13;;
45136;SDS011;30894;51.740;19.498;2023-04-24T14:07:19;8.98;;;2.53;;
45136;SDS011;30894;51.740;19.498;2023-04-24T14:10:22;9.52;;;2.33;;
45136;SDS011;30894;51.740;19.498;2023-04-24T14:13:24;3.33;;;2.25;;
45136;SDS011;30894;51.740;19.498;2023-04-24T14:16:28;8.98;;;2.33;;
45136;SDS011;30894;51.740;19.498;2023-04-24T14:19:34;3.47;;;2.47;;
45136;SDS011;30894;51.740;19.498;2023-04-24T14:22:47;3.97;;;2.20;;
45136;SDS011;30894;51.740;19.498;2023-04-24T14:45:40;3.17;;;2.40;;
45136;SDS011;30894;51.740;19.498;2023-04-24T14:48:57;8.80;;;2.60;;
45136;SDS011;30894;51.740;19.498;2023-04-24T14:52:04;3.55;;;2.60;;
45136;SDS011;30894;51.740;19.498;2023-04-24T14:55:05;6.68;;;2.30;;
45136;SDS011;30894;51.740;19.498;2023-04-24T14:58:31;3.72;;;2.65;;
45136;SDS011;30894;51.740;19.498;2023-04-24T15:01:20;5.45;;;3.10;;
45136;SDS011;30894;51.740;19.498;2023-04-24T15:04:23;6.20;;;2.97;;
45136;SDS011;30894;51.740;19.498;2023-04-24T15:56:25;4.22;;;3.25;;
45136;SDS011;30894;51.740;19.498;2023-04-24T15:59:35;8.80;;;3.03;;
45136;SDS011;30894;51.740;19.498;2023-04-24T16:02:24;7.25;;;3.17;;
45136;SDS011;30894;51.740;19.498;2023-04-24T16:05:22;3.75;;;2.55;;
45136;SDS011;30894;51.740;19.498;2023-04-24T16:10:58;4.50;;;2.50;;
45136;SDS011;30894;51.740;19.498;2023-04-24T16:13:50;4.80;;;3.00;;
45136;SDS011;30894;51.740;19.498;2023-04-24T16:16:36;7.03;;;3.35;;
45136;SDS011;30894;51.740;19.498;2023-04-24T16:19:24;5.32;;;3.30;;
45136;SDS011;30894;51.740;19.498;2023-04-24T16:22:20;4.47;;;3.10;;
45136;SDS011;30894;51.740;19.498;2023-04-24T16:24:59;3.28;;;2.85;;
45136;SDS011;30894;51.740;19.498;2023-04-24T16:30:30;5.90;;;3.08;;
45136;SDS011;30894;51.740;19.498;2023-04-24T16:33:28;5.53;;;3.28;;
45136;SDS011;30894;51.740;19.498;2023-04-24T16:36:17;4.63;;;3.40;;
45136;SDS011;30894;51.740;19.498;2023-04-24T16:39:06;7.28;;;3.50;;
45136;SDS011;30894;51.740;19.498;2023-04-24T16:42:11;7.00;;;3.83;;
45136;SDS011;30894;51.740;19.498;2023-04-24T16:45:11;4.55;;;2.90;;
45136;SDS011;30894;51.740;19.498;2023-04-24T16:48:19;5.10;;;3.25;;
45136;SDS011;30894;51.740;19.498;2023-04-24T16:51:04;8.20;;;3.50;;
45136;SDS011;30894;51.740;19.498;2023-04-24T16:53:54;9.23;;;3.50;;
45136;SDS011;30894;51.740;19.498;2023-04-24T16:57:09;7.93;;;3.90;;
45136;SDS011;30894;51.740;19.498;2023-04-24T17:00:22;10.80;;;3.63;;
45136;SDS011;30894;51.740;19.498;2023-04-24T17:03:19;5.03;;;3.33;;
45136;SDS011;30894;51.740;19.498;2023-04-24T17:06:50;5.25;;;3.33;;
45136;SDS011;30894;51.740;19.498;2023-04-24T17:15:16;5.60;;;3.72;;
45136;SDS011;30894;51.740;19.498;2023-04-24T17:18:17;6.80;;;3.88;;
45136;SDS011;30894;51.740;19.498;2023-04-24T17:21:21;12.57;;;4.18;;
45136;SDS011;30894;51.740;19.498;2023-04-24T17:23:59;8.93;;;3.90;;
45136;SDS011;30894;51.740;19.498;2023-04-24T17:26:48;13.93;;;4.88;;
45136;SDS011;30894;51.740;19.498;2023-04-24T17:29:38;6.93;;;4.28;;
45136;SDS011;30894;51.740;19.498;2023-04-24T17:32:33;7.20;;;4.95;;
45136;SDS011;30894;51.740;19.498;2023-04-24T17:35:30;9.75;;;4.25;;
45136;SDS011;30894;51.740;19.498;2023-04-24T17:38:20;9.00;;;4.40;;
45136;SDS011;30894;51.740;19.498;2023-04-24T17:41:23;6.00;;;4.10;;
45136;SDS011;30894;51.740;19.498;2023-04-24T17:44:12;7.18;;;4.20;;
45136;SDS011;30894;51.740;19.498;2023-04-24T17:46:59;7.40;;;3.95;;
45136;SDS011;30894;51.740;19.498;2023-04-24T17:49:48;7.88;;;4.28;;
45136;SDS011;30894;51.740;19.498;2023-04-24T17:52:37;5.85;;;3.95;;
45136;SDS011;30894;51.740;19.498;2023-04-24T17:55:19;8.75;;;3.88;;
45136;SDS011;30894;51.740;19.498;2023-04-24T17:58:14;7.22;;;4.13;;
45136;SDS011;30894;51.740;19.498;2023-04-24T18:01:09;7.00;;;4.40;;
45136;SDS011;30894;51.740;19.498;2023-04-24T18:03:53;5.05;;;3.45;;
45136;SDS011;30894;51.740;19.498;2023-04-24T18:06:57;5.78;;;3.63;;
45136;SDS011;30894;51.740;19.498;2023-04-24T18:09:47;6.93;;;4.03;;
45136;SDS011;30894;51.740;19.498;2023-04-24T18:12:41;8.18;;;3.60;;
45136;SDS011;30894;51.740;19.498;2023-04-24T18:15:47;4.85;;;3.75;;
45136;SDS011;30894;51.740;19.498;2023-04-24T18:18:55;6.95;;;3.65;;
45136;SDS011;30894;51.740;19.498;2023-04-24T18:27:59;6.27;;;3.27;;
45136;SDS011;30894;51.740;19.498;2023-04-24T18:31:05;8.18;;;4.28;;
45136;SDS011;30894;51.740;19.498;2023-04-24T18:34:19;5.70;;;4.03;;
45136;SDS011;30894;51.740;19.498;2023-04-24T18:37:32;6.22;;;4.30;;
45136;SDS011;30894;51.740;19.498;2023-04-24T18:40:23;7.28;;;3.88;;
45136;SDS011;30894;51.740;19.498;2023-04-24T18:46:41;6.72;;;4.18;;
45136;SDS011;30894;51.740;19.498;2023-04-24T18:49:32;9.68;;;4.32;;
45136;SDS011;30894;51.740;19.498;2023-04-24T18:52:34;8.52;;;4.50;;
45136;SDS011;30894;51.740;19.498;2023-04-24T18:56:08;8.73;;;4.95;;
45136;SDS011;30894;51.740;19.498;2023-04-24T18:59:19;7.43;;;4.50;;
45136;SDS011;30894;51.740;19.498;2023-04-24T19:02:14;8.63;;;4.80;;
45136;SDS011;30894;51.740;19.498;2023-04-24T19:05:14;9.35;;;4.97;;
45136;SDS011;30894;51.740;19.498;2023-04-24T19:10:56;10.68;;;5.00;;
45136;SDS011;30894;51.740;19.498;2023-04-24T19:14:01;10.18;;;5.32;;
45136;SDS011;30894;51.740;19.498;2023-04-24T19:17:19;10.13;;;4.68;;
45136;SDS011;30894;51.740;19.498;2023-04-24T19:24:43;8.90;;;5.03;;
45136;SDS011;30894;51.740;19.498;2023-04-24T19:27:45;10.35;;;4.85;;
45136;SDS011;30894;51.740;19.498;2023-04-24T19:31:31;11.18;;;5.65;;
45136;SDS011;30894;51.740;19.498;2023-04-24T19:34:20;14.13;;;5.78;;
45136;SDS011;30894;51.740;19.498;2023-04-24T19:37:31;11.05;;;5.63;;
45136;SDS011;30894;51.740;19.498;2023-04-24T19:40:17;10.45;;;5.35;;
45136;SDS011;30894;51.740;19.498;2023-04-24T19:43:19;10.82;;;5.80;;
45136;SDS011;30894;51.740;19.498;2023-04-24T19:53:04;12.02;;;5.75;;
45136;SDS011;30894;51.740;19.498;2023-04-24T20:22:03;14.25;;;5.70;;
45136;SDS011;30894;51.740;19.498;2023-04-24T20:39:00;9.98;;;5.03;;
45136;SDS011;30894;51.740;19.498;2023-04-24T20:41:54;8.47;;;4.33;;
45136;SDS011;30894;51.740;19.498;2023-04-24T20:44:56;9.05;;;5.05;;
45136;SDS011;30894;51.740;19.498;2023-04-24T20:50:43;12.05;;;4.15;;
45136;SDS011;30894;51.740;19.498;2023-04-24T20:53:43;7.90;;;3.88;;
45136;SDS011;30894;51.740;19.498;2023-04-24T20:56:38;5.68;;;2.67;;
45136;SDS011;30894;51.740;19.498;2023-04-24T21:00:14;5.90;;;2.95;;
45136;SDS011;30894;51.740;19.498;2023-04-24T21:03:51;6.22;;;3.03;;
45136;SDS011;30894;51.740;19.498;2023-04-24T21:07:19;5.28;;;2.35;;
45136;SDS011;30894;51.740;19.498;2023-04-24T21:10:27;4.30;;;2.75;;
45136;SDS011;30894;51.740;19.498;2023-04-24T21:13:36;6.00;;;3.30;;
45136;SDS011;30894;51.740;19.498;2023-04-24T21:16:44;5.82;;;2.85;;
45136;SDS011;30894;51.740;19.498;2023-04-24T21:23:06;8.63;;;2.97;;
45136;SDS011;30894;51.740;19.498;2023-04-24T21:26:12;13.63;;;3.08;;
45136;SDS011;30894;51.740;19.498;2023-04-24T21:29:29;11.95;;;2.85;;
45136;SDS011;30894;51.740;19.498;2023-04-24T21:37:36;6.68;;;3.35;;
45136;SDS011;30894;51.740;19.498;2023-04-24T21:40:39;12.27;;;3.60;;
45136;SDS011;30894;51.740;19.498;2023-04-24T21:43:33;4.57;;;3.42;;
45136;SDS011;30894;51.740;19.498;2023-04-24T21:46:56;7.32;;;3.05;;
45136;SDS011;30894;51.740;19.498;2023-04-24T21:58:58;6.10;;;2.67;;
45136;SDS011;30894;51.740;19.498;2023-04-24T22:02:02;5.78;;;2.75;;
45136;SDS011;30894;51.740;19.498;2023-04-24T22:04:57;5.35;;;3.15;;
45136;SDS011;30894;51.740;19.498;2023-04-24T22:07:48;4.60;;;2.47;;
45136;SDS011;30894;51.740;19.498;2023-04-24T22:10:52;5.95;;;2.72;;
45136;SDS011;30894;51.740;19.498;2023-04-24T22:14:18;4.07;;;2.67;;
45136;SDS011;30894;51.740;19.498;2023-04-24T22:17:27;5.78;;;2.83;;
45136;SDS011;30894;51.740;19.498;2023-04-24T22:20:40;5.97;;;2.67;;
45136;SDS011;30894;51.740;19.498;2023-04-24T22:24:17;4.72;;;2.80;;
45136;SDS011;30894;51.740;19.498;2023-04-24T22:27:23;3.83;;;2.13;;
45136;SDS011;30894;51.740;19.498;2023-04-24T22:30:30;4.80;;;2.35;;
45136;SDS011;30894;51.740;19.498;2023-04-24T22:33:17;4.80;;;2.38;;
45136;SDS011;30894;51.740;19.498;2023-04-24T22:36:30;4.45;;;2.15;;
45136;SDS011;30894;51.740;19.498;2023-04-24T22:39:37;6.40;;;1.88;;
45136;SDS011;30894;51.740;19.498;2023-04-24T22:42:47;4.90;;;2.22;;
45136;SDS011;30894;51.740;19.498;2023-04-24T22:54:04;5.95;;;2.60;;
45136;SDS011;30894;51.740;19.498;2023-04-24T22:57:19;5.07;;;2.90;;
45136;SDS011;30894;51.740;19.498;2023-04-24T23:00:31;5.68;;;2.42;;
45136;SDS011;30894;51.740;19.498;2023-04-24T23:30:34;5.53;;;3.03;;
45136;SDS011;30894;51.740;19.498;2023-04-24T23:33:26;6.47;;;2.90;;
45136;SDS011;30894;51.740;19.498;2023-04-24T23:36:41;7.18;;;2.78;;
45136;SDS011;30894;51.740;19.498;2023-04-24T23:39:51;4.13;;;2.55;;
45136;SDS011;30894;51.740;19.498;2023-04-24T23:43:06;3.80;;;2.40;;
45136;SDS011;30894;51.740;19.498;2023-04-24T23:46:05;3.72;;;2.40;;
45136;SDS011;30894;51.740;19.498;2023-04-24T23:49:01;3.47;;;2.53;;
45136;SDS011;30894;51.740;19.498;2023-04-24T23:51:57;3.70;;;1.92;;
45136;SDS011;30894;51.740;19.498;2023-04-24T23:55:04;2.77;;;1.83;;
